sensor_id;sensor_type;location;lat;lon;timestamp;pressure;altitude;pressure_sealevel;temperature;humidity
44697;BME280;57264;47.480;19.354;2024-03-02T00:01:57;98416.03;;;7.74;80.75
44697;BME280;57264;47.480;19.354;2024-03-02T00:04:23;98416.22;;;7.69;81.20
44697;BME280;57264;47.480;19.354;2024-03-02T00:06:51;98417.13;;;7.68;81.62
44697;BME280;57264;47.480;19.354;2024-03-02T00:09:16;98415.31;;;7.70;81.15
44697;BME280;57264;47.480;19.354;2024-03-02T00:11:41;98417.03;;;7.70;80.59
44697;BME280;57264;47.480;19.354;2024-03-02T00:14:07;98418.81;;;7.68;80.33
44697;BME280;57264;47.480;19.354;2024-03-02T00:16:33;98418.97;;;7.64;80.86
44697;BME280;57264;47.480;19.354;2024-03-02T00:19:05;98420.72;;;7.62;80.48
44697;BME280;57264;47.480;19.354;2024-03-02T00:21:31;98419.91;;;7.62;80.79
44697;BME280;57264;47.480;19.354;2024-03-02T00:23:57;98411.47;;;7.57;80.86
44697;BME280;57264;47.480;19.354;2024-03-02T00:26:22;98415.88;;;7.53;81.16
44697;BME280;57264;47.480;19.354;2024-03-02T00:28:47;98419.38;;;7.52;81.54
44697;BME280;57264;47.480;19.354;2024-03-02T00:31:15;98414.81;;;7.59;81.26
44697;BME280;57264;47.480;19.354;2024-03-02T00:33:43;98415.50;;;7.64;80.68
44697;BME280;57264;47.480;19.354;2024-03-02T00:36:09;98416.94;;;7.73;80.72
44697;BME280;57264;47.480;19.354;2024-03-02T00:38:45;98420.38;;;7.73;80.45
44697;BME280;57264;47.480;19.354;2024-03-02T00:41:15;98413.34;;;7.77;80.46
44697;BME280;57264;47.480;19.354;2024-03-02T00:46:13;98416.69;;;7.80;79.93
44697;BME280;57264;47.480;19.354;2024-03-02T00:48:46;98416.63;;;7.82;79.57
44697;BME280;57264;47.480;19.354;2024-03-02T00:51:12;98410.44;;;7.86;79.47
44697;BME280;57264;47.480;19.354;2024-03-02T00:53:38;98412.09;;;7.88;79.19
44697;BME280;57264;47.480;19.354;2024-03-02T00:56:03;98407.50;;;7.95;78.52
44697;BME280;57264;47.480;19.354;2024-03-02T00:58:34;98400.50;;;7.99;78.48
44697;BME280;57264;47.480;19.354;2024-03-02T01:03:44;98398.63;;;8.02;78.50
44697;BME280;57264;47.480;19.354;2024-03-02T01:06:10;98401.22;;;8.02;78.38
44697;BME280;57264;47.480;19.354;2024-03-02T01:08:36;98390.94;;;8.01;78.59
44697;BME280;57264;47.480;19.354;2024-03-02T01:11:01;98390.16;;;7.99;78.11
44697;BME280;57264;47.480;19.354;2024-03-02T01:13:27;98384.97;;;7.99;78.30
44697;BME280;57264;47.480;19.354;2024-03-02T01:15:52;98387.56;;;7.99;77.77
44697;BME280;57264;47.480;19.354;2024-03-02T01:18:18;98386.66;;;8.00;78.05
44697;BME280;57264;47.480;19.354;2024-03-02T01:20:43;98392.63;;;8.02;78.01
44697;BME280;57264;47.480;19.354;2024-03-02T01:23:09;98397.69;;;8.05;77.83
44697;BME280;57264;47.480;19.354;2024-03-02T01:25:34;98401.78;;;8.10;77.61
44697;BME280;57264;47.480;19.354;2024-03-02T01:28:00;98393.91;;;8.13;77.44
44697;BME280;57264;47.480;19.354;2024-03-02T01:30:26;98399.84;;;8.17;77.31
44697;BME280;57264;47.480;19.354;2024-03-02T01:32:51;98391.81;;;8.23;76.60
44697;BME280;57264;47.480;19.354;2024-03-02T01:35:16;98390.09;;;8.24;76.30
44697;BME280;57264;47.480;19.354;2024-03-02T01:37:42;98386.63;;;8.25;76.64
44697;BME280;57264;47.480;19.354;2024-03-02T01:40:07;98380.53;;;8.26;76.35
44697;BME280;57264;47.480;19.354;2024-03-02T01:42:37;98380.59;;;8.24;76.41
44697;BME280;57264;47.480;19.354;2024-03-02T01:45:04;98372.88;;;8.23;76.58
44697;BME280;57264;47.480;19.354;2024-03-02T01:47:29;98379.75;;;8.24;76.36
44697;BME280;57264;47.480;19.354;2024-03-02T01:49:55;98381.44;;;8.25;76.34
44697;BME280;57264;47.480;19.354;2024-03-02T01:52:20;98384.88;;;8.25;76.66
44697;BME280;57264;47.480;19.354;2024-03-02T01:54:45;98389.19;;;8.25;76.86
44697;BME280;57264;47.480;19.354;2024-03-02T01:57:11;98388.19;;;8.29;76.20
44697;BME280;57264;47.480;19.354;2024-03-02T01:59:36;98385.59;;;8.29;76.51
44697;BME280;57264;47.480;19.354;2024-03-02T02:02:01;98378.66;;;8.29;76.12
44697;BME280;57264;47.480;19.354;2024-03-02T02:04:27;98383.78;;;8.31;75.76
44697;BME280;57264;47.480;19.354;2024-03-02T02:06:53;98389.75;;;8.33;75.79
44697;BME280;57264;47.480;19.354;2024-03-02T02:09:18;98385.59;;;8.29;75.86
44697;BME280;57264;47.480;19.354;2024-03-02T02:11:44;98391.53;;;8.31;75.95
44697;BME280;57264;47.480;19.354;2024-03-02T02:14:09;98393.25;;;8.32;75.90
44697;BME280;57264;47.480;19.354;2024-03-02T02:16:35;98388.94;;;8.31;76.04
44697;BME280;57264;47.480;19.354;2024-03-02T02:19:00;98386.38;;;8.31;75.98
44697;BME280;57264;47.480;19.354;2024-03-02T02:21:25;98381.16;;;8.32;75.40
44697;BME280;57264;47.480;19.354;2024-03-02T02:23:52;98380.16;;;8.35;75.24
44697;BME280;57264;47.480;19.354;2024-03-02T02:26:17;98380.13;;;8.36;75.16
44697;BME280;57264;47.480;19.354;2024-03-02T02:28:43;98384.44;;;8.37;75.07
44697;BME280;57264;47.480;19.354;2024-03-02T02:31:15;98392.22;;;8.36;75.33
44697;BME280;57264;47.480;19.354;2024-03-02T02:33:40;98393.13;;;8.35;75.32
44697;BME280;57264;47.480;19.354;2024-03-02T02:36:06;98392.34;;;8.33;75.77
44697;BME280;57264;47.480;19.354;2024-03-02T02:38:34;98400.94;;;8.33;75.68
44697;BME280;57264;47.480;19.354;2024-03-02T02:41:02;98398.34;;;8.33;75.98
44697;BME280;57264;47.480;19.354;2024-03-02T02:43:27;98394.28;;;8.28;76.61
44697;BME280;57264;47.480;19.354;2024-03-02T02:45:52;98390.94;;;8.24;77.32
44697;BME280;57264;47.480;19.354;2024-03-02T02:48:18;98391.91;;;8.22;77.05
44697;BME280;57264;47.480;19.354;2024-03-02T02:50:43;98380.78;;;8.20;77.39
44697;BME280;57264;47.480;19.354;2024-03-02T02:53:08;98387.63;;;8.21;76.72
44697;BME280;57264;47.480;19.354;2024-03-02T02:55:35;98394.41;;;8.23;76.73
44697;BME280;57264;47.480;19.354;2024-03-02T02:58:03;98391.00;;;8.23;77.01
44697;BME280;57264;47.480;19.354;2024-03-02T03:00:28;98398.75;;;8.23;76.49
44697;BME280;57264;47.480;19.354;2024-03-02T03:02:53;98393.41;;;8.27;76.00
44697;BME280;57264;47.480;19.354;2024-03-02T03:05:19;98399.44;;;8.28;76.16
44697;BME280;57264;47.480;19.354;2024-03-02T03:07:44;98405.38;;;8.30;76.24
44697;BME280;57264;47.480;19.354;2024-03-02T03:10:11;98401.06;;;8.30;75.71
44697;BME280;57264;47.480;19.354;2024-03-02T03:12:36;98399.31;;;8.31;76.01
44697;BME280;57264;47.480;19.354;2024-03-02T03:15:02;98407.06;;;8.31;75.46
44697;BME280;57264;47.480;19.354;2024-03-02T03:17:29;98404.47;;;8.31;75.96
44697;BME280;57264;47.480;19.354;2024-03-02T03:19:55;98409.66;;;8.31;75.69
44697;BME280;57264;47.480;19.354;2024-03-02T03:22:20;98410.56;;;8.30;75.73
44697;BME280;57264;47.480;19.354;2024-03-02T03:24:46;98407.22;;;8.28;75.91
44697;BME280;57264;47.480;19.354;2024-03-02T03:27:11;98408.09;;;8.27;76.33
44697;BME280;57264;47.480;19.354;2024-03-02T03:29:37;98406.41;;;8.26;75.91
44697;BME280;57264;47.480;19.354;2024-03-02T03:32:02;98408.16;;;8.25;76.95
44697;BME280;57264;47.480;19.354;2024-03-02T03:34:32;98414.16;;;8.26;77.23
44697;BME280;57264;47.480;19.354;2024-03-02T03:36:57;98412.50;;;8.25;77.32
44697;BME280;57264;47.480;19.354;2024-03-02T03:39:23;98416.81;;;8.24;78.05
44697;BME280;57264;47.480;19.354;2024-03-02T03:41:48;98422.16;;;8.20;78.58
44697;BME280;57264;47.480;19.354;2024-03-02T03:44:13;98422.38;;;8.13;79.88
44697;BME280;57264;47.480;19.354;2024-03-02T03:46:39;98428.56;;;8.09;80.21
44697;BME280;57264;47.480;19.354;2024-03-02T03:49:04;98433.91;;;8.05;80.63
44697;BME280;57264;47.480;19.354;2024-03-02T03:51:30;98432.44;;;7.98;81.74
44697;BME280;57264;47.480;19.354;2024-03-02T03:53:55;98442.28;;;7.88;82.70
44697;BME280;57264;47.480;19.354;2024-03-02T03:56:21;98439.06;;;7.81;82.94
44697;BME280;57264;47.480;19.354;2024-03-02T03:58:46;98434.13;;;7.74;83.47
44697;BME280;57264;47.480;19.354;2024-03-02T04:01:11;98439.50;;;7.68;83.73
44697;BME280;57264;47.480;19.354;2024-03-02T04:03:37;98432.88;;;7.60;84.34
44697;BME280;57264;47.480;19.354;2024-03-02T04:06:03;98429.59;;;7.55;84.16
44697;BME280;57264;47.480;19.354;2024-03-02T04:08:28;98432.31;;;7.52;85.04
44697;BME280;57264;47.480;19.354;2024-03-02T04:10:53;98431.56;;;7.49;85.02
44697;BME280;57264;47.480;19.354;2024-03-02T04:13:19;98429.91;;;7.46;84.83
44697;BME280;57264;47.480;19.354;2024-03-02T04:15:45;98431.69;;;7.44;84.93
44697;BME280;57264;47.480;19.354;2024-03-02T04:18:10;98430.00;;;7.43;85.19
44697;BME280;57264;47.480;19.354;2024-03-02T04:20:36;98430.06;;;7.42;85.18
44697;BME280;57264;47.480;19.354;2024-03-02T04:23:02;98430.06;;;7.42;86.04
44697;BME280;57264;47.480;19.354;2024-03-02T04:25:27;98429.25;;;7.39;85.76
44697;BME280;57264;47.480;19.354;2024-03-02T04:27:52;98432.69;;;7.40;85.85
44697;BME280;57264;47.480;19.354;2024-03-02T04:30:18;98427.50;;;7.40;86.30
44697;BME280;57264;47.480;19.354;2024-03-02T04:32:43;98428.41;;;7.39;85.99
44697;BME280;57264;47.480;19.354;2024-03-02T04:35:11;98423.25;;;7.39;86.75
44697;BME280;57264;47.480;19.354;2024-03-02T04:37:37;98419.81;;;7.38;86.69
44697;BME280;57264;47.480;19.354;2024-03-02T04:40:02;98423.25;;;7.39;86.48
44697;BME280;57264;47.480;19.354;2024-03-02T04:42:28;98423.25;;;7.39;86.45
44697;BME280;57264;47.480;19.354;2024-03-02T04:44:53;98421.50;;;7.39;87.00
44697;BME280;57264;47.480;19.354;2024-03-02T04:47:18;98426.75;;;7.38;87.00
44697;BME280;57264;47.480;19.354;2024-03-02T04:49:44;98424.06;;;7.41;86.98
44697;BME280;57264;47.480;19.354;2024-03-02T04:52:09;98425.81;;;7.41;87.06
44697;BME280;57264;47.480;19.354;2024-03-02T04:54:35;98425.81;;;7.41;87.08
44697;BME280;57264;47.480;19.354;2024-03-02T04:57:20;98428.41;;;7.39;87.32
44697;BME280;57264;47.480;19.354;2024-03-02T04:59:45;98427.56;;;7.38;87.21
44697;BME280;57264;47.480;19.354;2024-03-02T05:02:11;98424.09;;;7.39;87.41
44697;BME280;57264;47.480;19.354;2024-03-02T05:04:39;98418.91;;;7.39;87.64
44697;BME280;57264;47.480;19.354;2024-03-02T05:07:04;98424.06;;;7.41;87.85
44697;BME280;57264;47.480;19.354;2024-03-02T05:09:30;98422.34;;;7.40;87.42
44697;BME280;57264;47.480;19.354;2024-03-02T05:11:55;98421.50;;;7.39;87.30
44697;BME280;57264;47.480;19.354;2024-03-02T05:14:29;98420.63;;;7.41;87.15
44697;BME280;57264;47.480;19.354;2024-03-02T05:16:55;98416.34;;;7.39;87.14
44697;BME280;57264;47.480;19.354;2024-03-02T05:19:20;98431.06;;;7.37;87.53
44697;BME280;57264;47.480;19.354;2024-03-02T05:21:45;98432.81;;;7.37;87.36
44697;BME280;57264;47.480;19.354;2024-03-02T05:24:11;98444.88;;;7.36;87.66
44697;BME280;57264;47.480;19.354;2024-03-02T05:26:36;98442.31;;;7.36;87.85
44697;BME280;57264;47.480;19.354;2024-03-02T05:29:02;98450.16;;;7.33;88.08
44697;BME280;57264;47.480;19.354;2024-03-02T05:31:28;98451.09;;;7.31;88.19
44697;BME280;57264;47.480;19.354;2024-03-02T05:33:53;98453.66;;;7.31;88.11
44697;BME280;57264;47.480;19.354;2024-03-02T05:36:18;98445.13;;;7.29;87.69
44697;BME280;57264;47.480;19.354;2024-03-02T05:38:44;98460.63;;;7.29;87.40
44697;BME280;57264;47.480;19.354;2024-03-02T05:41:09;98458.91;;;7.29;87.32
44697;BME280;57264;47.480;19.354;2024-03-02T05:43:35;98464.94;;;7.28;87.87
44697;BME280;57264;47.480;19.354;2024-03-02T05:46:00;98465.91;;;7.26;87.94
44697;BME280;57264;47.480;19.354;2024-03-02T05:48:25;98460.72;;;7.26;87.37
44697;BME280;57264;47.480;19.354;2024-03-02T05:50:50;98464.16;;;7.26;87.55
44697;BME280;57264;47.480;19.354;2024-03-02T05:53:16;98465.91;;;7.24;87.90
44697;BME280;57264;47.480;19.354;2024-03-02T05:55:41;98466.78;;;7.25;87.38
44697;BME280;57264;47.480;19.354;2024-03-02T05:58:06;98476.16;;;7.27;88.14
44697;BME280;57264;47.480;19.354;2024-03-02T06:00:32;98466.66;;;7.28;87.98
44697;BME280;57264;47.480;19.354;2024-03-02T06:02:58;98476.16;;;7.27;88.34
44697;BME280;57264;47.480;19.354;2024-03-02T06:05:23;98477.84;;;7.28;88.32
44697;BME280;57264;47.480;19.354;2024-03-02T06:07:49;98476.91;;;7.31;88.06
44697;BME280;57264;47.480;19.354;2024-03-02T06:10:15;98473.44;;;7.32;88.03
44697;BME280;57264;47.480;19.354;2024-03-02T06:12:40;98470.84;;;7.32;88.15
44697;BME280;57264;47.480;19.354;2024-03-02T06:15:06;98475.16;;;7.33;88.21
44697;BME280;57264;47.480;19.354;2024-03-02T06:17:32;98476.13;;;7.29;87.59
44697;BME280;57264;47.480;19.354;2024-03-02T06:19:57;98482.19;;;7.28;87.81
44697;BME280;57264;47.480;19.354;2024-03-02T06:22:22;98473.59;;;7.27;88.28
44697;BME280;57264;47.480;19.354;2024-03-02T06:24:50;98473.59;;;7.27;87.80
44697;BME280;57264;47.480;19.354;2024-03-02T06:27:15;98485.50;;;7.31;88.31
44697;BME280;57264;47.480;19.354;2024-03-02T06:29:41;98482.00;;;7.34;88.27
44697;BME280;57264;47.480;19.354;2024-03-02T06:32:07;98476.72;;;7.37;88.17
44697;BME280;57264;47.480;19.354;2024-03-02T06:34:32;98480.94;;;7.39;87.83
44697;BME280;57264;47.480;19.354;2024-03-02T06:36:57;98480.91;;;7.41;88.19
44697;BME280;57264;47.480;19.354;2024-03-02T06:39:23;98481.69;;;7.43;88.55
44697;BME280;57264;47.480;19.354;2024-03-02T06:41:48;98483.34;;;7.46;88.40
44697;BME280;57264;47.480;19.354;2024-03-02T06:44:13;98484.19;;;7.46;87.96
44697;BME280;57264;47.480;19.354;2024-03-02T06:46:39;98485.81;;;7.49;88.13
44697;BME280;57264;47.480;19.354;2024-03-02T06:49:04;98485.50;;;7.58;87.72
44697;BME280;57264;47.480;19.354;2024-03-02T06:51:29;98483.63;;;7.63;87.75
44697;BME280;57264;47.480;19.354;2024-03-02T06:53:55;98483.69;;;7.61;87.67
44697;BME280;57264;47.480;19.354;2024-03-02T06:56:20;98486.94;;;7.67;87.55
44697;BME280;57264;47.480;19.354;2024-03-02T06:58:46;98486.84;;;7.70;87.84
44697;BME280;57264;47.480;19.354;2024-03-02T07:01:12;98484.16;;;7.73;88.15
44697;BME280;57264;47.480;19.354;2024-03-02T07:03:37;98486.63;;;7.76;87.65
44697;BME280;57264;47.480;19.354;2024-03-02T07:06:04;98490.09;;;7.76;87.85
44697;BME280;57264;47.480;19.354;2024-03-02T07:08:30;98490.03;;;7.78;87.51
44697;BME280;57264;47.480;19.354;2024-03-02T07:10:55;98492.59;;;7.78;87.54
44697;BME280;57264;47.480;19.354;2024-03-02T07:13:22;98493.59;;;7.74;87.46
44697;BME280;57264;47.480;19.354;2024-03-02T07:15:47;98492.88;;;7.70;88.12
44697;BME280;57264;47.480;19.354;2024-03-02T07:18:31;98499.09;;;7.64;88.33
44697;BME280;57264;47.480;19.354;2024-03-02T07:20:56;98502.63;;;7.62;88.58
44697;BME280;57264;47.480;19.354;2024-03-02T07:23:26;98503.53;;;7.59;88.91
44697;BME280;57264;47.480;19.354;2024-03-02T07:25:55;98501.88;;;7.58;88.45
44697;BME280;57264;47.480;19.354;2024-03-02T07:28:21;98500.22;;;7.56;88.66
44697;BME280;57264;47.480;19.354;2024-03-02T07:30:47;98501.03;;;7.58;89.19
44697;BME280;57264;47.480;19.354;2024-03-02T07:33:14;98511.44;;;7.56;89.22
44697;BME280;57264;47.480;19.354;2024-03-02T07:35:41;98511.03;;;7.69;89.27
44697;BME280;57264;47.480;19.354;2024-03-02T07:38:08;98509.28;;;7.69;89.16
44697;BME280;57264;47.480;19.354;2024-03-02T07:40:33;98523.13;;;7.67;88.88
44697;BME280;57264;47.480;19.354;2024-03-02T07:42:59;98514.63;;;7.63;89.45
44697;BME280;57264;47.480;19.354;2024-03-02T07:45:24;98517.19;;;7.64;88.91
44697;BME280;57264;47.480;19.354;2024-03-02T07:47:50;98516.22;;;7.67;89.07
44697;BME280;57264;47.480;19.354;2024-03-02T07:50:15;98519.63;;;7.69;89.50
44697;BME280;57264;47.480;19.354;2024-03-02T07:52:41;98526.47;;;7.70;88.69
44697;BME280;57264;47.480;19.354;2024-03-02T07:55:06;98527.47;;;7.66;88.96
44697;BME280;57264;47.480;19.354;2024-03-02T07:57:32;98530.97;;;7.65;89.36
44697;BME280;57264;47.480;19.354;2024-03-02T07:59:57;98531.69;;;7.69;89.21
44697;BME280;57264;47.480;19.354;2024-03-02T08:02:24;98531.81;;;7.64;89.12
44697;BME280;57264;47.480;19.354;2024-03-02T08:04:49;98530.91;;;7.67;89.55
44697;BME280;57264;47.480;19.354;2024-03-02T08:07:15;98533.53;;;7.65;89.16
44697;BME280;57264;47.480;19.354;2024-03-02T08:09:40;98538.72;;;7.65;89.41
44697;BME280;57264;47.480;19.354;2024-03-02T08:12:06;98535.22;;;7.66;89.61
44697;BME280;57264;47.480;19.354;2024-03-02T08:14:31;98537.81;;;7.66;89.36
44697;BME280;57264;47.480;19.354;2024-03-02T08:16:56;98543.81;;;7.67;89.57
44697;BME280;57264;47.480;19.354;2024-03-02T08:19:22;98535.31;;;7.63;90.00
44697;BME280;57264;47.480;19.354;2024-03-02T08:21:47;98538.75;;;7.63;90.14
44697;BME280;57264;47.480;19.354;2024-03-02T08:24:13;98531.72;;;7.67;90.24
44697;BME280;57264;47.480;19.354;2024-03-02T08:26:38;98533.28;;;7.73;89.99
44697;BME280;57264;47.480;19.354;2024-03-02T08:29:04;98537.41;;;7.78;89.40
44697;BME280;57264;47.480;19.354;2024-03-02T08:31:32;98527.81;;;7.82;89.60
44697;BME280;57264;47.480;19.354;2024-03-02T08:33:57;98532.81;;;7.86;89.28
44697;BME280;57264;47.480;19.354;2024-03-02T08:36:23;98526.56;;;7.94;89.20
44697;BME280;57264;47.480;19.354;2024-03-02T08:38:49;98529.88;;;7.97;89.24
44697;BME280;57264;47.480;19.354;2024-03-02T08:41:15;98531.56;;;7.98;88.95
44697;BME280;57264;47.480;19.354;2024-03-02T08:43:41;98534.72;;;8.06;88.82
44697;BME280;57264;47.480;19.354;2024-03-02T08:46:07;98532.03;;;8.09;88.84
44697;BME280;57264;47.480;19.354;2024-03-02T08:48:33;98530.84;;;8.20;88.48
44697;BME280;57264;47.480;19.354;2024-03-02T08:50:58;98535.00;;;8.24;88.30
44697;BME280;57264;47.480;19.354;2024-03-02T08:53:23;98533.88;;;8.31;88.32
44697;BME280;57264;47.480;19.354;2024-03-02T08:55:49;98531.84;;;8.41;87.74
44697;BME280;57264;47.480;19.354;2024-03-02T08:58:14;98535.66;;;8.55;87.81
44697;BME280;57264;47.480;19.354;2024-03-02T09:00:40;98526.59;;;8.67;87.62
44697;BME280;57264;47.480;19.354;2024-03-02T09:03:05;98529.00;;;8.72;87.01
44697;BME280;57264;47.480;19.354;2024-03-02T09:05:31;98534.19;;;8.72;86.77
44697;BME280;57264;47.480;19.354;2024-03-02T09:07:56;98527.19;;;8.74;86.76
44697;BME280;57264;47.480;19.354;2024-03-02T09:10:21;98535.78;;;8.74;86.28
44697;BME280;57264;47.480;19.354;2024-03-02T09:12:47;98529.00;;;8.72;86.03
44697;BME280;57264;47.480;19.354;2024-03-02T09:15:12;98535.41;;;8.61;86.38
44697;BME280;57264;47.480;19.354;2024-03-02T09:17:38;98544.34;;;8.53;86.82
44697;BME280;57264;47.480;19.354;2024-03-02T09:20:04;98539.13;;;8.54;87.09
44697;BME280;57264;47.480;19.354;2024-03-02T09:22:29;98540.69;;;8.58;87.49
44697;BME280;57264;47.480;19.354;2024-03-02T09:24:55;98537.78;;;8.68;86.81
44697;BME280;57264;47.480;19.354;2024-03-02T09:27:20;98538.63;;;8.68;86.92
44697;BME280;57264;47.480;19.354;2024-03-02T09:29:46;98537.94;;;8.63;86.78
44697;BME280;57264;47.480;19.354;2024-03-02T09:32:14;98539.53;;;8.67;86.31
44697;BME280;57264;47.480;19.354;2024-03-02T09:34:40;98543.28;;;8.58;87.06
44697;BME280;57264;47.480;19.354;2024-03-02T09:37:06;98542.72;;;8.50;87.18
44697;BME280;57264;47.480;19.354;2024-03-02T09:39:31;98541.41;;;8.38;87.62
44697;BME280;57264;47.480;19.354;2024-03-02T09:41:57;98548.41;;;8.35;87.73
44697;BME280;57264;47.480;19.354;2024-03-02T09:44:23;98550.16;;;8.34;87.76
44697;BME280;57264;47.480;19.354;2024-03-02T09:46:50;98540.88;;;8.29;88.43
44697;BME280;57264;47.480;19.354;2024-03-02T09:49:15;98550.47;;;8.25;88.20
44697;BME280;57264;47.480;19.354;2024-03-02T09:51:41;98540.03;;;8.28;87.99
44697;BME280;57264;47.480;19.354;2024-03-02T09:54:12;98542.44;;;8.33;87.97
44697;BME280;57264;47.480;19.354;2024-03-02T09:56:38;98542.53;;;8.30;87.76
44697;BME280;57264;47.480;19.354;2024-03-02T09:59:03;98538.28;;;8.29;87.81
44697;BME280;57264;47.480;19.354;2024-03-02T10:01:30;98539.84;;;8.33;87.32
44697;BME280;57264;47.480;19.354;2024-03-02T10:03:55;98540.88;;;8.29;87.42
44697;BME280;57264;47.480;19.354;2024-03-02T10:06:23;98545.13;;;8.30;87.58
44697;BME280;57264;47.480;19.354;2024-03-02T10:08:49;98548.63;;;8.29;87.72
44697;BME280;57264;47.480;19.354;2024-03-02T10:16:41;98538.03;;;8.35;88.59
44697;BME280;57264;47.480;19.354;2024-03-02T10:21:53;98539.56;;;8.42;88.10
44697;BME280;57264;47.480;19.354;2024-03-02T10:24:19;98533.38;;;8.46;88.05
44697;BME280;57264;47.480;19.354;2024-03-02T10:26:45;98535.22;;;8.43;88.06
44697;BME280;57264;47.480;19.354;2024-03-02T10:29:10;98532.59;;;8.44;88.21
44697;BME280;57264;47.480;19.354;2024-03-02T10:31:37;98536.19;;;8.40;88.61
44697;BME280;57264;47.480;19.354;2024-03-02T10:34:02;98533.38;;;8.46;88.48
44697;BME280;57264;47.480;19.354;2024-03-02T10:36:28;98531.34;;;8.54;88.73
44697;BME280;57264;47.480;19.354;2024-03-02T10:38:55;98519.22;;;8.56;88.71
44697;BME280;57264;47.480;19.354;2024-03-02T10:41:24;98534.63;;;8.59;88.53
44697;BME280;57264;47.480;19.354;2024-03-02T10:43:52;98532.81;;;8.61;88.59
44697;BME280;57264;47.480;19.354;2024-03-02T10:46:26;98528.38;;;8.65;88.58
44697;BME280;57264;47.480;19.354;2024-03-02T10:48:53;98517.91;;;8.68;88.22
44697;BME280;57264;47.480;19.354;2024-03-02T10:51:18;98531.59;;;8.72;88.01
44697;BME280;57264;47.480;19.354;2024-03-02T10:53:43;98529.31;;;8.86;87.70
44697;BME280;57264;47.480;19.354;2024-03-02T10:56:09;98527.91;;;9.01;87.49
44697;BME280;57264;47.480;19.354;2024-03-02T10:58:34;98523.38;;;9.06;87.15
44697;BME280;57264;47.480;19.354;2024-03-02T11:01:02;98528.44;;;9.09;86.64
44697;BME280;57264;47.480;19.354;2024-03-02T11:03:27;98518.34;;;9.03;86.13
44697;BME280;57264;47.480;19.354;2024-03-02T11:05:54;98518.56;;;8.97;86.30
44697;BME280;57264;47.480;19.354;2024-03-02T11:08:21;98523.81;;;8.95;86.66
44697;BME280;57264;47.480;19.354;2024-03-02T11:10:50;98519.47;;;8.96;86.76
44697;BME280;57264;47.480;19.354;2024-03-02T11:13:18;98516.69;;;9.00;87.20
44697;BME280;57264;47.480;19.354;2024-03-02T11:15:47;98513.94;;;9.05;87.14
44697;BME280;57264;47.480;19.354;2024-03-02T11:18:14;98516.84;;;9.19;87.14
44697;BME280;57264;47.480;19.354;2024-03-02T11:20:40;98512.91;;;9.31;86.91
44697;BME280;57264;47.480;19.354;2024-03-02T11:23:09;98513.19;;;9.45;85.84
44697;BME280;57264;47.480;19.354;2024-03-02T11:25:34;98508.19;;;9.41;85.45
44697;BME280;57264;47.480;19.354;2024-03-02T11:28:01;98506.81;;;9.32;85.57
44697;BME280;57264;47.480;19.354;2024-03-02T11:33:05;98506.34;;;9.00;86.25
44697;BME280;57264;47.480;19.354;2024-03-02T11:35:33;98504.88;;;8.93;86.74
44697;BME280;57264;47.480;19.354;2024-03-02T11:37:58;98509.63;;;8.82;86.77
44697;BME280;57264;47.480;19.354;2024-03-02T11:40:26;98503.56;;;8.83;87.05
44697;BME280;57264;47.480;19.354;2024-03-02T11:42:52;98501.06;;;8.80;86.97
44697;BME280;57264;47.480;19.354;2024-03-02T11:45:22;98504.06;;;8.69;87.23
44697;BME280;57264;47.480;19.354;2024-03-02T11:47:50;98503.78;;;8.53;87.76
44697;BME280;57264;47.480;19.354;2024-03-02T11:50:16;98498.03;;;8.45;88.20
44697;BME280;57264;47.480;19.354;2024-03-02T11:52:53;98501.88;;;8.33;88.14
44697;BME280;57264;47.480;19.354;2024-03-02T11:55:19;98508.66;;;8.37;87.98
44697;BME280;57264;47.480;19.354;2024-03-02T11:57:45;98508.66;;;8.37;88.37
44697;BME280;57264;47.480;19.354;2024-03-02T12:00:17;98510.13;;;8.45;88.39
44697;BME280;57264;47.480;19.354;2024-03-02T12:02:43;98507.59;;;8.43;88.58
44697;BME280;57264;47.480;19.354;2024-03-02T12:05:13;98507.91;;;8.34;88.15
44697;BME280;57264;47.480;19.354;2024-03-02T12:07:38;98507.81;;;8.37;88.16
44697;BME280;57264;47.480;19.354;2024-03-02T12:10:03;98508.72;;;8.34;88.47
44697;BME280;57264;47.480;19.354;2024-03-02T12:12:30;98506.97;;;8.35;88.09
44697;BME280;57264;47.480;19.354;2024-03-02T12:14:56;98503.72;;;8.30;87.75
44697;BME280;57264;47.480;19.354;2024-03-02T12:17:22;98507.16;;;8.30;87.27
44697;BME280;57264;47.480;19.354;2024-03-02T12:19:47;98509.63;;;8.33;87.68
44697;BME280;57264;47.480;19.354;2024-03-02T12:22:13;98514.06;;;8.30;87.30
44697;BME280;57264;47.480;19.354;2024-03-02T12:24:38;98515.00;;;8.29;87.34
44697;BME280;57264;47.480;19.354;2024-03-02T12:27:04;98506.91;;;8.38;87.37
44697;BME280;57264;47.480;19.354;2024-03-02T12:29:30;98512.34;;;8.30;87.01
44697;BME280;57264;47.480;19.354;2024-03-02T12:31:56;98514.06;;;8.30;87.13
44697;BME280;57264;47.480;19.354;2024-03-02T12:34:21;98509.56;;;8.35;87.10
44697;BME280;57264;47.480;19.354;2024-03-02T12:36:48;98508.00;;;8.31;87.03
44697;BME280;57264;47.480;19.354;2024-03-02T12:39:15;98508.00;;;8.31;86.88
44697;BME280;57264;47.480;19.354;2024-03-02T12:41:41;98507.13;;;8.32;86.87
44697;BME280;57264;47.480;19.354;2024-03-02T12:44:07;98505.41;;;8.31;86.59
44697;BME280;57264;47.480;19.354;2024-03-02T12:46:32;98513.97;;;8.33;87.03
44697;BME280;57264;47.480;19.354;2024-03-02T12:49:05;98511.38;;;8.33;87.10
44697;BME280;57264;47.480;19.354;2024-03-02T12:51:32;98508.72;;;8.34;86.57
44697;BME280;57264;47.480;19.354;2024-03-02T12:53:57;98503.50;;;8.37;87.01
44697;BME280;57264;47.480;19.354;2024-03-02T12:56:23;98506.81;;;8.41;87.44
44697;BME280;57264;47.480;19.354;2024-03-02T12:58:52;98512.34;;;8.30;87.13
44697;BME280;57264;47.480;19.354;2024-03-02T13:01:18;98513.16;;;8.31;86.94
44697;BME280;57264;47.480;19.354;2024-03-02T13:03:44;98514.06;;;8.30;86.91
44697;BME280;57264;47.480;19.354;2024-03-02T13:06:10;98517.84;;;8.21;87.58
44697;BME280;57264;47.480;19.354;2024-03-02T13:08:35;98514.41;;;8.21;88.09
44697;BME280;57264;47.480;19.354;2024-03-02T13:11:01;98516.16;;;8.20;88.17